RJOO/ITM METAR and TAF weather

Enter ICAO airport designator
Station Type Date Time Source
RJOO METAR 2021/07/30 06:00 UTC NOAA

RJOO 300600Z 23008KT 190V270 9999 FEW030 34/24 Q0999


Station Type Date Time Source
RJOO Decoded METAR 2021/07/30 06:00 UTC NOAA

Osaka International Airport, Japan (RJOO) 34-47N 135-27E 15M
Jul 30, 2021 - 02:00 AM EDT / 2021.07.30 0600 UTC
Wind: from the SW (230 degrees) at 9 MPH (8 KT) (direction variable):0
Visibility: greater than 7 mile(s):0
Sky conditions: mostly clear
Temperature: 93 F (34 C)
Heat index: 104.5 F (40.3 C):1
Dew Point: 75 F (24 C)
Relative Humidity: 56%
Pressure (altimeter): 29.50 in. Hg (0999 hPa)
ob: RJOO 300600Z 23008KT 190V270 9999 FEW030 34/24 Q0999
cycle: 6

Station Type Date Time Source
RJOO TAF 2021/07/30 06:30 UTC NOAA

TAF RJOO 300507Z 3006/3112 24006KT 9999 FEW025 SCT040
BECMG 3021/3100 22006KT
BECMG 3109/3112 24005KT

Example: see airport list